Time;durP1;ratioP1;P1;durP2;ratioP2;P2;SDS_P1;SDS_P2;PMS_P1;PMS_P2;Temp;Humidity;BMP_temperature;BMP_pressure;BME280_temperature;BME280_humidity;BME280_pressure;Samples;Min_cycle;Max_cycle;Signal;HPM_P1;HPM_P2
2022/08/09 00:02:07;;;;;;;4.00;2.10;;;;;;;23.91;45.82;99603.16;5026436;28;20029;-84
2022/08/09 00:04:34;;;;;;;3.35;1.20;;;;;;;23.85;46.08;99598.22;5007663;28;20508;-83
2022/08/09 00:07:00;;;;;;;1.92;1.40;;;;;;;24.21;46.00;99650.41;5007786;28;20068;-85
2022/08/09 00:09:26;;;;;;;2.85;1.83;;;;;;;23.99;45.84;99615.19;5007667;28;20026;-84
2022/08/09 00:11:51;;;;;;;5.68;2.03;;;;;;;23.85;46.44;99641.31;5022206;28;20036;-84
2022/08/09 00:14:17;;;;;;;1.67;1.25;;;;;;;23.71;46.27;99633.31;5025690;28;20037;-84
2022/08/09 00:16:43;;;;;;;3.13;2.00;;;;;;;23.59;47.54;99641.28;5026946;28;20033;-84
2022/08/09 00:19:09;;;;;;;4.18;2.15;;;;;;;23.46;47.95;99653.00;5019244;28;20490;-84
2022/08/09 00:21:35;;;;;;;2.13;1.30;;;;;;;23.37;47.69;99632.97;5014518;28;20044;-85
2022/08/09 00:24:01;;;;;;;4.88;1.50;;;;;;;23.02;47.62;99615.56;5007203;28;20503;-84
2022/08/09 00:26:28;;;;;;;3.50;1.90;;;;;;;22.84;48.51;99608.75;5007091;28;20036;-86
2022/08/09 00:28:53;;;;;;;1.88;1.20;;;;;;;22.77;49.23;99612.78;5007597;28;20068;-83
2022/08/09 00:31:22;;;;;;;3.47;2.03;;;;;;;22.97;48.80;99611.44;5016737;28;20072;-85
2022/08/09 00:33:51;;;;;;;2.63;1.17;;;;;;;22.96;48.47;99602.53;5027183;28;20033;-83
2022/08/09 00:36:16;;;;;;;1.92;1.50;;;;;;;23.12;48.28;99631.13;5025663;28;20432;-84
2022/08/09 00:38:43;;;;;;;4.65;1.88;;;;;;;23.28;47.92;99661.41;5006798;28;20049;-83
2022/08/09 00:41:08;;;;;;;1.77;1.27;;;;;;;23.31;47.75;99645.03;5008435;28;20041;-83
2022/08/09 00:43:36;;;;;;;8.25;2.08;;;;;;;23.07;48.07;99616.09;5019016;28;20115;-83
2022/08/09 00:46:05;;;;;;;6.93;2.20;;;;;;;23.27;47.87;99637.28;5010741;28;20077;-82
2022/08/09 00:48:31;;;;;;;1.95;1.45;;;;;;;23.29;47.49;99651.47;5008405;28;20053;-83
2022/08/09 00:51:02;;;;;;;9.48;1.98;;;;;;;23.08;47.58;99614.28;5006976;28;20038;-83
2022/08/09 00:53:27;;;;;;;2.38;1.60;;;;;;;23.09;47.32;99621.41;5007222;28;20038;-83
2022/08/09 00:55:53;;;;;;;3.10;2.15;;;;;;;23.16;47.25;99646.09;5011187;28;20033;-83
2022/08/09 00:58:18;;;;;;;7.18;1.80;;;;;;;23.17;46.07;99645.97;5027009;28;20108;-82
2022/08/09 01:00:44;;;;;;;4.88;1.65;;;;;;;23.02;46.17;99623.63;5027101;28;20030;-84
2022/08/09 01:03:23;;;;;;;3.45;1.88;;;;;;;23.01;46.77;99654.19;5018435;28;20045;-82
2022/08/09 01:06:11;;;;;;;3.92;2.30;;;;;;;23.04;46.40;99637.84;5016373;28;20032;-82
2022/08/09 01:08:58;;;;;;;2.63;1.75;;;;;;;22.97;45.75;99636.53;5031023;28;20196;-84
2022/08/09 01:12:03;;;;;;;51.40;6.97;;;;;;;23.03;45.12;99646.88;5030537;28;20038;-82
2022/08/09 01:14:39;;;;;;;8.05;3.72;;;;;;;22.94;45.18;99647.50;5027641;28;20030;-83
2022/08/09 01:17:15;;;;;;;47.95;5.40;;;;;;;22.87;45.01;99630.03;5025915;28;20033;-82
2022/08/09 01:19:52;;;;;;;11.20;4.07;;;;;;;23.05;45.33;99660.22;5020061;28;20038;-83
2022/08/09 01:22:40;;;;;;;18.58;5.03;;;;;;;23.13;45.84;99646.28;5010808;28;20038;-83
2022/08/09 01:25:37;;;;;;;13.57;4.28;;;;;;;22.70;46.22;99590.84;5010681;28;20026;-82
2022/08/09 01:28:05;;;;;;;11.45;4.30;;;;;;;22.70;46.71;99634.72;5010434;28;20030;-82
2022/08/09 01:30:33;;;;;;;8.73;3.78;;;;;;;22.65;47.14;99631.47;5014197;28;20488;-82
2022/08/09 01:33:00;;;;;;;8.65;3.55;;;;;;;22.38;46.87;99592.97;5010705;28;20038;-81
2022/08/09 01:35:34;;;;;;;6.75;4.18;;;;;;;22.55;46.60;99643.78;5012596;28;20030;-82
2022/08/09 01:38:05;;;;;;;10.10;3.85;;;;;;;22.32;47.22;99631.84;5030382;28;20037;-82
2022/08/09 01:40:34;;;;;;;7.43;2.72;;;;;;;22.32;46.97;99603.19;5018868;28;20033;-82
2022/08/09 01:43:01;;;;;;;9.82;2.40;;;;;;;22.37;47.56;99612.75;5010549;28;20033;-84
2022/08/09 01:45:28;;;;;;;6.18;2.70;;;;;;;22.33;47.57;99591.44;5012369;28;20128;-84
2022/08/09 01:47:55;;;;;;;4.75;1.90;;;;;;;22.45;47.63;99623.88;5025129;28;20029;-86
2022/08/09 01:50:22;;;;;;;6.65;1.92;;;;;;;22.28;47.36;99627.63;5033374;28;20041;-82
2022/08/09 01:52:50;;;;;;;8.90;3.05;;;;;;;21.98;46.53;99610.69;5010295;28;20099;-81
2022/08/09 01:55:17;;;;;;;5.82;2.13;;;;;;;22.10;46.64;99637.72;5017620;28;20543;-82
2022/08/09 01:57:48;;;;;;;5.80;3.33;;;;;;;21.85;46.48;99601.69;5029446;28;20029;-84
2022/08/09 02:00:14;;;;;;;2.13;1.75;;;;;;;21.90;46.55;99618.34;5029880;28;20033;-82
2022/08/09 02:02:42;;;;;;;2.78;2.15;;;;;;;21.89;46.11;99605.03;5018647;28;20511;-82
2022/08/09 02:05:10;;;;;;;1.45;0.95;;;;;;;22.03;46.07;99618.47;5029935;28;20534;-81
2022/08/09 02:07:44;;;;;;;1.17;0.90;;;;;;;22.35;45.35;99656.72;5028962;28;20087;-81
2022/08/09 02:10:17;;;;;;;1.27;0.80;;;;;;;22.32;45.85;99646.16;5029162;28;20076;-84
2022/08/09 02:12:44;;;;;;;1.92;1.55;;;;;;;22.25;46.25;99634.06;5020839;28;20036;-84
2022/08/09 02:15:11;;;;;;;1.20;1.02;;;;;;;22.32;46.26;99647.97;5011898;28;20029;-85
2022/08/09 02:17:41;;;;;;;0.82;0.82;;;;;;;21.94;46.84;99595.72;5009353;28;20117;-84
2022/08/09 02:20:07;;;;;;;0.47;0.47;;;;;;;22.04;47.78;99627.38;5009395;28;20480;-84
2022/08/09 02:22:41;;;;;;;0.68;0.40;;;;;;;21.60;48.33;99618.47;5026759;28;20052;-85
2022/08/09 02:25:11;;;;;;;0.45;0.45;;;;;;;21.63;47.59;99616.44;5012123;28;20036;-85
2022/08/09 02:27:41;;;;;;;1.42;1.05;;;;;;;21.83;48.20;99641.19;5027925;28;20112;-85
2022/08/09 02:30:08;;;;;;;0.73;0.65;;;;;;;21.29;48.27;99642.63;5022219;28;20491;-86
2022/08/09 02:32:40;;;;;;;0.50;0.50;;;;;;;21.35;47.92;99619.94;5020461;28;20033;-84
2022/08/09 02:35:16;;;;;;;0.40;0.40;;;;;;;21.11;47.39;99596.31;5012564;28;20088;-85
2022/08/09 02:37:43;;;;;;;0.73;0.73;;;;;;;21.39;47.54;99607.19;5009386;28;20037;-84
2022/08/09 02:40:13;;;;;;;0.77;0.75;;;;;;;21.70;47.49;99640.22;5009476;28;20029;-84
2022/08/09 02:42:43;;;;;;;0.30;0.30;;;;;;;21.67;47.65;99638.59;5009377;28;20033;-85
2022/08/09 02:45:29;;;;;;;0.35;0.35;;;;;;;21.62;48.80;99641.56;5024573;28;20049;-85
2022/08/09 02:48:03;;;;;;;1.33;1.23;;;;;;;21.66;48.56;99647.63;5011805;28;20510;-85
2022/08/09 02:50:35;;;;;;;0.98;0.95;;;;;;;21.58;48.78;99644.53;5027587;28;20469;-84
2022/08/09 02:53:15;;;;;;;1.35;1.00;;;;;;;21.48;48.85;99637.97;5014420;28;20133;-83
2022/08/09 02:55:46;;;;;;;0.50;0.50;;;;;;;21.45;48.83;99620.25;5027003;28;20033;-84
2022/08/09 02:58:14;;;;;;;0.52;0.52;;;;;;;21.56;49.03;99627.66;5024498;28;20083;-84
2022/08/09 03:00:41;;;;;;;1.90;1.75;;;;;;;21.73;48.55;99634.66;5013346;28;20030;-83
2022/08/09 03:03:07;;;;;;;0.85;0.85;;;;;;;21.57;48.94;99616.84;5028148;28;20452;-85
2022/08/09 03:05:34;;;;;;;0.45;0.45;;;;;;;21.67;49.67;99643.97;5009150;28;20503;-83
2022/08/09 03:08:02;;;;;;;5.53;1.52;;;;;;;21.49;49.92;99620.91;5009202;28;20088;-84
2022/08/09 03:10:28;;;;;;;0.30;0.30;;;;;;;21.73;49.99;99666.88;5020110;28;20033;-85
2022/08/09 03:12:55;;;;;;;1.08;0.70;;;;;;;21.58;49.70;99631.09;5028341;28;20037;-84
2022/08/09 03:15:23;;;;;;;0.20;0.20;;;;;;;21.44;49.42;99605.97;5010557;28;20048;-85
2022/08/09 03:17:50;;;;;;;0.38;0.38;;;;;;;21.63;48.94;99650.50;5008454;28;20041;-85
2022/08/09 03:20:16;;;;;;;1.98;1.20;;;;;;;21.63;48.44;99651.34;5007990;28;20036;-82
2022/08/09 03:22:45;;;;;;;1.20;1.10;;;;;;;21.52;49.06;99658.31;5008454;28;20030;-83
2022/08/09 03:25:12;;;;;;;3.63;1.40;;;;;;;21.22;50.38;99617.13;5008683;28;20030;-84
2022/08/09 03:27:38;;;;;;;1.52;1.42;;;;;;;21.50;50.57;99647.69;5008079;28;20534;-84
2022/08/09 03:30:04;;;;;;;0.52;0.52;;;;;;;21.28;50.18;99616.75;5008452;28;20036;-84
2022/08/09 03:32:33;;;;;;;0.40;0.40;;;;;;;21.50;49.77;99628.91;5008508;28;20036;-81
2022/08/09 03:34:59;;;;;;;0.15;0.15;;;;;;;21.44;49.97;99610.44;5007773;28;20034;-82
2022/08/09 03:37:25;;;;;;;3.03;1.08;;;;;;;21.54;50.30;99649.22;5007701;28;20038;-83
2022/08/09 03:39:51;;;;;;;2.50;2.08;;;;;;;21.39;50.16;99653.66;5008014;28;20084;-82
2022/08/09 03:42:17;;;;;;;0.73;0.70;;;;;;;21.10;50.34;99604.47;5007503;28;20030;-83
2022/08/09 03:44:42;;;;;;;0.70;0.70;;;;;;;21.24;50.06;99625.09;5010552;28;20045;-82
2022/08/09 03:47:08;;;;;;;1.52;0.82;;;;;;;21.43;50.03;99640.94;5008146;28;20042;-82
2022/08/09 03:49:35;;;;;;;0.80;0.80;;;;;;;21.21;49.90;99595.75;5012280;28;20112;-82
2022/08/09 03:52:01;;;;;;;0.40;0.40;;;;;;;21.37;50.06;99609.13;5026981;28;20567;-83
2022/08/09 03:54:47;;;;;;;0.52;0.52;;;;;;;21.52;50.25;99599.28;5008772;28;20054;-84
2022/08/09 03:57:14;;;;;;;0.40;0.40;;;;;;;21.31;49.34;99625.59;5011091;28;20048;-83
2022/08/09 03:59:41;;;;;;;1.38;1.27;;;;;;;21.28;50.08;99622.13;5023791;28;20033;-81
2022/08/09 04:02:07;;;;;;;5.00;1.75;;;;;;;21.20;49.88;99586.88;5007765;28;20045;-81
2022/08/09 04:04:33;;;;;;;1.42;1.33;;;;;;;21.34;49.31;99620.03;5007551;28;20029;-82
2022/08/09 04:06:59;;;;;;;3.92;2.97;;;;;;;21.45;49.18;99617.56;5024751;28;20053;-82
2022/08/09 04:09:25;;;;;;;0.47;0.47;;;;;;;21.20;48.66;99588.69;5027014;28;20400;-80
2022/08/09 04:12:06;;;;;;;2.15;0.80;;;;;;;21.40;48.49;99619.66;5012419;28;20033;-80
2022/08/09 04:14:31;;;;;;;1.85;1.15;;;;;;;21.48;48.25;99619.19;5007166;28;20087;-80
2022/08/09 04:16:57;;;;;;;1.08;0.75;;;;;;;21.53;47.80;99606.38;5007120;28;20037;-81
2022/08/09 04:19:22;;;;;;;1.88;1.17;;;;;;;21.81;46.96;99621.63;5007171;28;20033;-80
2022/08/09 04:21:48;;;;;;;0.40;0.40;;;;;;;22.05;46.77;99616.53;5010259;28;20033;-82
2022/08/09 04:24:14;;;;;;;0.70;0.70;;;;;;;22.13;46.16;99611.53;5007534;28;20037;-81
2022/08/09 04:26:39;;;;;;;2.45;0.73;;;;;;;22.29;45.83;99597.09;5007245;28;20033;-80
2022/08/09 04:29:05;;;;;;;1.15;1.05;;;;;;;22.44;45.77;99611.41;5006868;28;20029;-80
2022/08/09 04:31:31;;;;;;;0.22;0.22;;;;;;;22.56;46.15;99598.97;5016552;28;20040;-80
2022/08/09 04:33:57;;;;;;;0.68;0.68;;;;;;;22.69;46.24;99616.88;5007967;28;20044;-81
2022/08/09 04:36:25;;;;;;;4.32;1.25;;;;;;;22.26;46.57;99611.59;5039968;28;20064;-83
2022/08/09 04:38:52;;;;;;;2.08;1.73;;;;;;;22.46;46.12;99617.50;5043142;28;20116;-82
2022/08/09 04:41:18;;;;;;;1.65;1.55;;;;;;;22.71;46.21;99631.06;5027007;28;20419;-82
2022/08/09 04:43:43;;;;;;;1.17;1.10;;;;;;;22.98;46.22;99622.09;5027445;28;20033;-80
2022/08/09 04:46:10;;;;;;;0.68;0.68;;;;;;;22.95;45.58;99589.19;4999410;28;20444;-79
2022/08/09 04:48:35;;;;;;;0.55;0.43;;;;;;;23.10;45.30;99609.69;4997000;28;20461;-83
2022/08/09 04:51:01;;;;;;;0.52;0.52;;;;;;;23.42;44.51;99630.84;4999762;28;20099;-81
2022/08/09 04:53:26;;;;;;;0.43;0.43;;;;;;;23.29;44.95;99579.69;5005258;28;20138;-80
2022/08/09 04:55:52;;;;;;;0.63;0.63;;;;;;;23.71;44.57;99619.84;4999371;28;20114;-80
2022/08/09 04:58:17;;;;;;;0.98;0.85;;;;;;;23.70;44.48;99628.91;4999368;28;20037;-80
2022/08/09 05:00:43;;;;;;;3.05;0.80;;;;;;;23.49;45.21;99599.81;5007174;28;20104;-77
2022/08/09 05:03:09;;;;;;;2.53;1.63;;;;;;;23.64;44.90;99586.25;5001047;28;20381;-78
2022/08/09 05:05:34;;;;;;;0.55;0.50;;;;;;;23.83;45.26;99608.19;5007014;28;20551;-78
2022/08/09 05:08:00;;;;;;;6.38;3.75;;;;;;;23.85;45.47;99590.16;5004933;28;20416;-78
2022/08/09 05:10:25;;;;;;;4.22;1.70;;;;;;;23.90;44.66;99595.19;4997205;28;20057;-79
2022/08/09 05:12:51;;;;;;;3.60;2.28;;;;;;;24.15;45.04;99637.38;4995539;28;20727;-77
2022/08/09 05:15:17;;;;;;;0.60;0.60;;;;;;;24.38;44.46;99599.81;4994362;28;20076;-82
2022/08/09 05:17:42;;;;;;;6.80;2.00;;;;;;;24.60;44.01;99616.13;5001491;28;20497;-82
2022/08/09 05:20:08;;;;;;;1.65;1.48;;;;;;;24.99;43.88;99619.50;4986917;28;20070;-79
2022/08/09 05:22:34;;;;;;;1.15;1.00;;;;;;;24.94;43.76;99627.06;4990653;28;20377;-78
2022/08/09 05:25:00;;;;;;;0.80;0.80;;;;;;;24.94;43.46;99621.66;4991495;28;20033;-80
2022/08/09 05:27:25;;;;;;;0.45;0.45;;;;;;;25.18;43.82;99616.25;5007446;28;20523;-80
2022/08/09 05:29:51;;;;;;;16.08;3.55;;;;;;;25.54;42.86;99630.56;5005219;28;20182;-79
2022/08/09 05:32:17;;;;;;;8.18;1.15;;;;;;;25.79;42.34;99636.75;4999100;28;20116;-78
2022/08/09 05:34:42;;;;;;;16.65;0.82;;;;;;;26.22;41.52;99644.13;5006093;28;20044;-81
2022/08/09 05:37:07;;;;;;;1.23;1.10;;;;;;;25.91;41.45;99622.25;4985278;28;20060;-80
2022/08/09 05:39:38;;;;;;;2.33;1.27;;;;;;;26.26;41.05;99623.13;5010884;28;20045;-80
2022/08/09 05:42:03;;;;;;;2.45;1.60;;;;;;;26.44;39.78;99636.97;5019126;28;20045;-81
2022/08/09 05:44:29;;;;;;;0.77;0.77;;;;;;;26.67;39.97;99645.91;5024204;28;20061;-82
2022/08/09 05:46:55;;;;;;;2.10;1.65;;;;;;;26.90;39.79;99630.47;5006184;28;20038;-79
2022/08/09 05:49:20;;;;;;;1.55;1.30;;;;;;;27.22;39.38;99607.91;4999397;28;20044;-80
2022/08/09 05:51:46;;;;;;;2.13;1.65;;;;;;;27.64;38.76;99628.75;5010052;28;20026;-80
2022/08/09 05:54:11;;;;;;;3.13;1.55;;;;;;;27.40;38.00;99605.47;5010146;28;20038;-79
2022/08/09 05:56:37;;;;;;;4.35;0.95;;;;;;;27.60;38.10;99630.84;5008627;28;20096;-83
2022/08/09 05:59:02;;;;;;;1.02;0.80;;;;;;;27.51;38.04;99618.09;5006067;28;20794;-79
2022/08/09 06:01:28;;;;;;;0.52;0.52;;;;;;;27.68;38.34;99613.91;5000720;28;20273;-79
2022/08/09 06:03:55;;;;;;;4.10;1.95;;;;;;;27.91;38.07;99603.75;4989993;28;20069;-80
2022/08/09 06:06:21;;;;;;;5.03;1.15;;;;;;;28.26;37.59;99610.59;4990294;28;20038;-80
2022/08/09 06:08:47;;;;;;;0.60;0.47;;;;;;;28.70;37.14;99608.44;4990485;28;20030;-79
2022/08/09 06:11:12;;;;;;;0.68;0.68;;;;;;;28.72;36.71;99624.56;4990568;28;20104;-79
2022/08/09 06:13:38;;;;;;;2.97;2.70;;;;;;;28.88;37.00;99599.56;4990594;28;20031;-79
2022/08/09 06:16:04;;;;;;;2.35;1.92;;;;;;;28.76;36.95;99631.41;4990410;28;20456;-79
2022/08/09 06:18:30;;;;;;;2.67;2.03;;;;;;;28.70;37.64;99624.72;4989841;28;20026;-80
2022/08/09 06:20:56;;;;;;;10.50;1.80;;;;;;;28.74;36.58;99596.28;4990140;28;20122;-79
2022/08/09 06:23:23;;;;;;;1.52;1.42;;;;;;;29.14;36.96;99631.56;4989114;28;20942;-79
2022/08/09 06:25:49;;;;;;;2.70;1.75;;;;;;;29.07;35.68;99620.41;4990575;28;20030;-79
2022/08/09 06:28:14;;;;;;;4.28;2.10;;;;;;;28.99;35.40;99604.84;4990295;28;20382;-79
2022/08/09 06:30:41;;;;;;;2.75;1.75;;;;;;;28.99;34.92;99620.28;4989775;28;20464;-80
2022/08/09 06:33:07;;;;;;;7.25;2.30;;;;;;;29.35;36.71;99610.56;4990384;28;20523;-79
2022/08/09 06:35:33;;;;;;;2.63;1.33;;;;;;;29.52;35.03;99591.78;4989836;28;20030;-79
2022/08/09 06:37:59;;;;;;;1.70;1.08;;;;;;;30.02;35.58;99590.63;4988617;28;20568;-79
2022/08/09 06:40:24;;;;;;;1.73;1.42;;;;;;;30.30;33.96;99614.06;4990070;28;20034;-78
2022/08/09 06:42:50;;;;;;;8.65;2.03;;;;;;;30.28;34.26;99613.38;4990300;28;20058;-79
2022/08/09 06:45:16;;;;;;;10.25;2.25;;;;;;;29.85;33.44;99603.16;4989392;28;20052;-78
2022/08/09 06:47:41;;;;;;;2.63;1.80;;;;;;;30.00;32.91;99607.94;4989795;28;20026;-79
2022/08/09 06:50:07;;;;;;;7.85;1.88;;;;;;;30.20;33.73;99604.25;4989672;28;20500;-79
2022/08/09 06:52:33;;;;;;;2.03;1.70;;;;;;;30.60;32.18;99592.16;4989942;28;20113;-79
2022/08/09 06:54:58;;;;;;;1.92;1.35;;;;;;;30.90;31.50;99599.06;4989741;28;20479;-79
2022/08/09 06:57:24;;;;;;;0.57;0.57;;;;;;;31.08;30.71;99610.00;4989369;28;20042;-80
2022/08/09 06:59:49;;;;;;;30.65;1.25;;;;;;;30.82;31.04;99605.31;4989510;28;20026;-80
2022/08/09 07:02:15;;;;;;;2.53;1.65;;;;;;;31.13;31.23;99582.28;4988846;28;20034;-78
2022/08/09 07:04:40;;;;;;;1.60;1.25;;;;;;;31.09;30.82;99595.34;4989419;28;20084;-80
2022/08/09 07:07:06;;;;;;;0.55;0.55;;;;;;;31.26;29.57;99603.66;4989589;28;20046;-79
2022/08/09 07:09:31;;;;;;;4.72;2.30;;;;;;;31.23;30.21;99581.16;4989580;28;20053;-80
2022/08/09 07:11:57;;;;;;;2.05;1.80;;;;;;;31.34;30.38;99592.81;4989226;28;20413;-79
2022/08/09 07:14:23;;;;;;;2.95;1.60;;;;;;;31.29;29.92;99584.25;4989472;28;20026;-80
2022/08/09 07:16:48;;;;;;;5.10;3.38;;;;;;;31.68;30.03;99602.94;4988950;28;20034;-80
2022/08/09 07:19:15;;;;;;;5.05;2.17;;;;;;;31.79;29.82;99572.63;4989463;28;20034;-80
2022/08/09 07:21:42;;;;;;;3.00;2.60;;;;;;;31.72;30.34;99579.78;4989459;28;20038;-80
2022/08/09 07:24:08;;;;;;;6.07;2.42;;;;;;;32.00;29.51;99587.75;4989500;28;20381;-80
2022/08/09 07:26:34;;;;;;;8.82;2.97;;;;;;;32.34;28.08;99592.34;4989150;28;20042;-80
2022/08/09 07:29:00;;;;;;;6.40;2.30;;;;;;;32.08;28.63;99587.78;4989427;28;20038;-80
2022/08/09 07:31:25;;;;;;;4.32;2.88;;;;;;;32.50;27.85;99584.16;4988755;28;20838;-80
2022/08/09 07:33:51;;;;;;;4.40;2.70;;;;;;;32.78;28.35;99616.66;4987878;28;20027;-80
2022/08/09 07:36:17;;;;;;;4.45;2.70;;;;;;;32.89;28.91;99604.56;4988774;28;20045;-80
2022/08/09 07:38:42;;;;;;;18.45;5.40;;;;;;;32.67;27.75;99601.47;4988907;28;20034;-80
2022/08/09 07:41:08;;;;;;;11.07;4.18;;;;;;;32.65;27.63;99604.34;4988382;28;20041;-81
2022/08/09 07:43:34;;;;;;;5.05;2.45;;;;;;;32.99;27.99;99597.06;4988969;28;20109;-80
2022/08/09 07:46:00;;;;;;;5.80;3.20;;;;;;;33.23;27.97;99607.16;4988327;28;20047;-79
2022/08/09 07:48:25;;;;;;;4.47;3.00;;;;;;;33.43;26.93;99596.72;4989107;28;20117;-82
2022/08/09 07:50:51;;;;;;;2.92;2.05;;;;;;;33.41;25.31;99595.19;4988467;28;20026;-80
2022/08/09 07:53:17;;;;;;;6.57;2.08;;;;;;;33.16;25.82;99611.56;4988233;28;20097;-79
2022/08/09 07:55:42;;;;;;;4.95;2.75;;;;;;;33.63;24.57;99605.41;4988759;28;20034;-79
2022/08/09 07:58:08;;;;;;;2.35;1.77;;;;;;;33.29;25.00;99586.47;4987570;28;20038;-80
2022/08/09 08:00:33;;;;;;;5.50;2.15;;;;;;;33.48;24.61;99602.50;4988389;28;20046;-80
2022/08/09 08:03:00;;;;;;;2.75;1.65;;;;;;;33.63;24.48;99623.66;4988219;28;20092;-80
2022/08/09 08:05:26;;;;;;;1.25;1.15;;;;;;;33.86;25.85;99618.34;4988581;28;20037;-80
2022/08/09 08:07:53;;;;;;;6.95;1.27;;;;;;;34.19;24.80;99615.50;4989012;28;20049;-79
2022/08/09 08:10:19;;;;;;;1.52;1.42;;;;;;;34.37;24.03;99590.59;4988324;28;20508;-80
2022/08/09 08:12:44;;;;;;;3.60;1.27;;;;;;;34.39;23.75;99600.34;4987974;28;20037;-81
2022/08/09 08:15:14;;;;;;;1.13;0.77;;;;;;;35.10;21.62;99594.72;4988061;28;20500;-79
2022/08/09 08:17:41;;;;;;;2.58;1.80;;;;;;;35.34;24.51;99584.59;4986944;28;20425;-79
2022/08/09 08:20:07;;;;;;;1.10;0.93;;;;;;;35.31;21.43;99584.97;4987615;28;20034;-80
2022/08/09 08:22:33;;;;;;;3.03;1.90;;;;;;;35.37;21.02;99592.44;4988257;28;20554;-81
2022/08/09 08:24:58;;;;;;;0.45;0.45;;;;;;;35.09;23.03;99556.56;4987996;28;20049;-80
2022/08/09 08:27:25;;;;;;;2.53;1.05;;;;;;;35.64;22.94;99587.38;4987917;28;20034;-80
2022/08/09 08:29:51;;;;;;;1.52;1.00;;;;;;;36.08;21.73;99578.28;4988063;28;20064;-80
2022/08/09 08:32:18;;;;;;;0.70;0.63;;;;;;;36.55;22.90;99581.63;4986715;28;20038;-81
2022/08/09 08:34:44;;;;;;;1.73;1.15;;;;;;;36.35;23.34;99575.91;4988024;28;20468;-80
2022/08/09 08:37:10;;;;;;;0.95;0.88;;;;;;;36.50;20.81;99575.84;4987991;28;20034;-80
2022/08/09 08:39:35;;;;;;;0.75;0.52;;;;;;;36.71;19.77;99580.50;4987871;28;20471;-80
2022/08/09 08:42:01;;;;;;;2.10;1.85;;;;;;;36.34;21.06;99575.03;4987737;28;20065;-81
2022/08/09 08:44:35;;;;;;;1.75;1.38;;;;;;;36.71;20.26;99542.91;4988237;28;20469;-81
2022/08/09 08:47:01;;;;;;;5.03;1.73;;;;;;;36.30;20.56;99559.16;4987559;28;20534;-81
2022/08/09 08:49:29;;;;;;;0.90;0.68;;;;;;;35.88;20.85;99560.72;4987934;28;20043;-80
2022/08/09 08:51:54;;;;;;;1.58;1.02;;;;;;;36.24;21.47;99536.06;4987618;28;20038;-80
2022/08/09 08:54:20;;;;;;;0.40;0.40;;;;;;;36.17;19.80;99522.25;4987939;28;20045;-80
2022/08/09 08:56:46;;;;;;;2.33;1.80;;;;;;;36.77;20.14;99549.53;4987322;28;20416;-80
2022/08/09 08:59:12;;;;;;;1.10;1.00;;;;;;;36.23;20.56;99537.09;4987720;28;20061;-81
2022/08/09 09:01:42;;;;;;;3.05;1.02;;;;;;;36.29;20.87;99521.78;4988035;28;20037;-80
2022/08/09 09:04:10;;;;;;;0.73;0.60;;;;;;;36.72;21.14;99546.50;4987532;28;20054;-81
2022/08/09 09:06:37;;;;;;;2.72;2.00;;;;;;;37.16;19.67;99539.06;4987466;28;20041;-80
2022/08/09 09:09:04;;;;;;;1.98;1.17;;;;;;;36.58;20.38;99501.59;4987594;28;20572;-82
2022/08/09 09:11:32;;;;;;;1.48;1.20;;;;;;;37.04;19.95;99514.03;4987533;28;20037;-81
2022/08/09 09:14:02;;;;;;;3.45;1.13;;;;;;;37.35;19.03;99543.03;4987452;28;20022;-81
2022/08/09 09:16:32;;;;;;;16.15;5.18;;;;;;;37.39;19.03;99533.34;4987854;28;20070;-81
2022/08/09 09:18:59;;;;;;;2.63;1.83;;;;;;;37.44;19.64;99514.31;4989536;28;20116;-80
2022/08/09 09:21:25;;;;;;;1.42;1.33;;;;;;;37.56;19.85;99531.97;5006111;28;20091;-81
2022/08/09 09:23:50;;;;;;;0.68;0.52;;;;;;;37.21;19.72;99522.81;5002336;28;20025;-80
2022/08/09 09:26:22;;;;;;;5.07;4.18;;;;;;;37.36;18.90;99490.59;5009195;28;20029;-80
2022/08/09 09:28:48;;;;;;;6.72;4.60;;;;;;;37.23;19.19;99518.00;5010256;28;20034;-80
2022/08/09 09:31:17;;;;;;;0.57;0.45;;;;;;;37.43;18.66;99529.13;5008070;28;20044;-80
2022/08/09 09:33:42;;;;;;;0.60;0.40;;;;;;;37.01;18.55;99518.00;4991058;28;20038;-79
2022/08/09 09:36:11;;;;;;;3.90;0.98;;;;;;;37.02;18.85;99529.88;4990350;28;20501;-79
2022/08/09 09:38:55;;;;;;;2.00;1.48;;;;;;;37.05;18.86;99526.72;4990350;28;20034;-80
2022/08/09 09:41:25;;;;;;;3.70;0.80;;;;;;;37.15;18.35;99518.97;4989820;28;20564;-81
2022/08/09 09:43:51;;;;;;;1.63;0.80;;;;;;;37.38;17.98;99507.72;4990362;28;20121;-79
2022/08/09 09:46:17;;;;;;;0.98;0.70;;;;;;;36.66;18.04;99497.84;4989444;28;20046;-80
2022/08/09 09:49:10;;;;;;;3.47;2.95;;;;;;;36.08;19.31;99490.47;4990873;28;20054;-81
2022/08/09 09:51:38;;;;;;;5.88;2.22;;;;;;;35.67;20.26;99480.88;4989622;28;20026;-80
2022/08/09 09:54:08;;;;;;;1.05;0.95;;;;;;;36.17;20.16;99500.28;4991062;28;20034;-80
2022/08/09 09:56:36;;;;;;;0.95;0.85;;;;;;;36.37;19.23;99481.31;4990838;28;20038;-80
2022/08/09 09:59:02;;;;;;;0.85;0.63;;;;;;;36.88;18.13;99494.03;4990709;28;20034;-79
2022/08/09 10:01:28;;;;;;;11.85;1.75;;;;;;;36.72;20.02;99484.16;4990749;28;20037;-80
2022/08/09 10:03:55;;;;;;;0.90;0.73;;;;;;;36.54;17.28;99484.63;4989708;28;20046;-79
2022/08/09 10:06:20;;;;;;;7.55;1.45;;;;;;;36.12;16.59;99463.50;4990507;28;20184;-80
2022/08/09 10:08:49;;;;;;;1.05;0.40;;;;;;;35.38;17.76;99479.00;4990494;28;20112;-79
2022/08/09 10:11:18;;;;;;;0.82;0.82;;;;;;;35.06;18.02;99485.69;4990150;28;20695;-81
2022/08/09 10:13:44;;;;;;;1.15;0.90;;;;;;;34.97;18.54;99493.13;4989814;28;20042;-79
2022/08/09 10:16:10;;;;;;;0.95;0.73;;;;;;;34.62;18.55;99500.94;4989259;28;20121;-80
2022/08/09 10:18:36;;;;;;;0.50;0.50;;;;;;;34.88;18.82;99481.41;4989238;28;20034;-80
2022/08/09 10:21:09;;;;;;;0.98;0.82;;;;;;;35.60;18.88;99457.16;4989689;28;20567;-81
2022/08/09 10:23:36;;;;;;;0.93;0.57;;;;;;;35.72;17.13;99477.56;4989837;28;20030;-80
2022/08/09 10:26:02;;;;;;;2.47;0.82;;;;;;;35.58;18.33;99500.38;4990443;28;20117;-80
2022/08/09 10:28:33;;;;;;;2.53;1.45;;;;;;;34.92;17.97;99477.25;4990151;28;20092;-80
2022/08/09 10:30:58;;;;;;;5.22;1.83;;;;;;;35.16;17.79;99489.00;4990487;28;20038;-80
2022/08/09 10:33:24;;;;;;;1.75;0.55;;;;;;;34.65;18.56;99488.75;4990307;28;20596;-81
2022/08/09 10:35:51;;;;;;;1.48;1.38;;;;;;;34.54;19.37;99479.09;4989391;28;20035;-80
2022/08/09 10:38:17;;;;;;;0.45;0.30;;;;;;;34.69;19.68;99495.59;4989947;28;20040;-84
2022/08/09 10:40:46;;;;;;;1.08;0.80;;;;;;;34.57;18.83;99457.69;4989651;28;20511;-82
2022/08/09 10:43:12;;;;;;;1.30;0.85;;;;;;;35.14;18.97;99471.88;4989914;28;20030;-81
2022/08/09 10:45:42;;;;;;;0.95;0.75;;;;;;;35.54;18.94;99477.13;4990178;28;20085;-82
2022/08/09 10:48:26;;;;;;;0.35;0.20;;;;;;;35.78;18.35;99493.28;4988789;28;20506;-82
2022/08/09 10:51:13;;;;;;;4.03;2.25;;;;;;;35.65;18.86;99499.44;4988026;28;20053;-81
2022/08/09 10:54:01;;;;;;;0.80;0.47;;;;;;;35.91;19.48;99469.81;4989340;28;20034;-82
2022/08/09 10:56:34;;;;;;;1.60;1.50;;;;;;;35.59;18.25;99474.63;4993949;28;20892;-84
2022/08/09 10:59:20;;;;;;;0.50;0.50;;;;;;;35.12;19.26;99469.31;5005875;28;20030;-81
2022/08/09 11:01:46;;;;;;;0.55;0.55;;;;;;;34.82;19.58;99467.59;5009282;28;20555;-81
2022/08/09 11:04:12;;;;;;;0.63;0.50;;;;;;;34.86;19.53;99502.63;5009220;28;20125;-80
2022/08/09 11:06:40;;;;;;;0.45;0.20;;;;;;;34.19;19.53;99471.28;5008928;28;20030;-80
2022/08/09 11:09:07;;;;;;;0.28;0.20;;;;;;;34.70;19.86;99481.69;5009268;28;20036;-81
2022/08/09 11:11:54;;;;;;;0.28;0.28;;;;;;;35.64;19.32;99494.97;5009036;28;20185;-81
2022/08/09 11:14:37;;;;;;;2.92;1.33;;;;;;;35.52;19.60;99492.91;5008868;28;20042;-80
2022/08/09 11:17:14;;;;;;;0.10;0.10;;;;;;;35.35;19.38;99487.63;5009307;28;20100;-80
2022/08/09 11:19:49;;;;;;;1.65;0.52;;;;;;;35.40;19.84;99485.16;5008864;28;20033;-81
2022/08/09 11:22:15;;;;;;;0.63;0.32;;;;;;;35.35;18.97;99487.63;5008645;28;20101;-79
2022/08/09 11:24:56;;;;;;;2.20;0.40;;;;;;;34.97;19.65;99491.25;5008577;28;20034;-82
2022/08/09 11:27:33;;;;;;;1.13;0.63;;;;;;;34.91;19.35;99491.13;5008632;28;20034;-80
2022/08/09 11:29:59;;;;;;;0.32;0.32;;;;;;;35.00;19.81;99473.56;5008814;28;20037;-81
2022/08/09 11:32:53;;;;;;;4.78;1.00;;;;;;;35.25;18.84;99459.59;5008763;28;20516;-80
2022/08/09 11:35:39;;;;;;;0.65;0.50;;;;;;;35.30;19.98;99473.63;5008283;28;20042;-79
2022/08/09 11:38:15;;;;;;;1.48;1.00;;;;;;;35.07;20.78;99462.72;5008588;28;20515;-81
2022/08/09 11:40:40;;;;;;;1.55;1.45;;;;;;;35.18;20.96;99478.69;5008398;28;20045;-80